Time;durP1;ratioP1;P1;durP2;ratioP2;P2;SDS_P1;SDS_P2;PMS_P1;PMS_P2;Temp;Humidity;BMP_temperature;BMP_pressure;BME280_temperature;BME280_humidity;BME280_pressure;Samples;Min_cycle;Max_cycle;Signal;HPM_P1;HPM_P2
2023/07/21 00:02:14;;;;;;;7.73;2.00;;;;;;;13.67;92.76;100768.75;5031907;28;20463;-68
2023/07/21 00:04:42;;;;;;;5.07;1.30;;;;;;;13.61;93.10;100768.13;5032082;28;20509;-68
2023/07/21 00:07:09;;;;;;;5.43;1.43;;;;;;;13.55;92.81;100761.22;5032095;28;20460;-68
2023/07/21 00:09:36;;;;;;;6.43;1.90;;;;;;;13.54;92.75;100756.88;5031913;28;20880;-69
2023/07/21 00:12:03;;;;;;;6.53;2.07;;;;;;;13.60;92.25;100758.34;5017619;28;20514;-69
2023/07/21 00:14:30;;;;;;;6.43;1.73;;;;;;;13.61;92.12;100746.34;5031050;28;20459;-69
2023/07/21 00:16:57;;;;;;;5.87;2.00;;;;;;;13.58;92.19;100750.50;5031943;28;20458;-69
2023/07/21 00:19:23;;;;;;;6.00;1.97;;;;;;;13.58;91.82;100750.50;5032439;28;20502;-68
2023/07/21 00:21:51;;;;;;;5.63;1.40;;;;;;;13.47;92.34;100742.97;5029305;28;20942;-68
2023/07/21 00:24:18;;;;;;;5.43;1.70;;;;;;;13.45;92.24;100750.63;5030924;28;20451;-68
2023/07/21 00:26:46;;;;;;;5.50;1.40;;;;;;;13.36;92.74;100743.22;5031762;28;20461;-68
2023/07/21 00:29:12;;;;;;;6.30;1.60;;;;;;;13.39;93.13;100741.81;5031684;28;20564;-68
2023/07/21 00:31:39;;;;;;;4.83;1.10;;;;;;;13.42;93.55;100741.19;5032666;28;20479;-68
2023/07/21 00:34:08;;;;;;;5.30;1.13;;;;;;;13.43;92.03;100733.81;5030585;28;20473;-68
2023/07/21 00:36:35;;;;;;;6.17;1.30;;;;;;;13.38;89.86;100732.84;5029319;28;21053;-68
2023/07/21 00:39:03;;;;;;;5.33;1.23;;;;;;;13.28;87.34;100735.88;5033106;28;20554;-68
2023/07/21 00:41:30;;;;;;;5.43;1.43;;;;;;;13.24;85.49;100739.53;5029834;28;20454;-68
2023/07/21 00:43:56;;;;;;;5.30;1.53;;;;;;;13.14;85.60;100735.13;5028675;28;20930;-68
2023/07/21 00:46:23;;;;;;;4.63;0.87;;;;;;;13.04;87.93;100740.84;5028893;28;20565;-68
2023/07/21 00:48:50;;;;;;;5.57;1.53;;;;;;;12.98;90.43;100739.41;5030657;28;20463;-68
2023/07/21 00:51:19;;;;;;;5.27;1.10;;;;;;;12.91;91.83;100736.31;5032052;28;20489;-68
2023/07/21 00:53:46;;;;;;;5.50;1.40;;;;;;;12.91;92.71;100733.59;5031139;28;20997;-68
2023/07/21 00:56:14;;;;;;;7.77;1.37;;;;;;;12.91;92.83;100730.88;5032266;28;20515;-68
2023/07/21 00:58:41;;;;;;;6.57;1.17;;;;;;;12.89;93.12;100731.19;5031819;28;20462;-68
2023/07/21 01:01:07;;;;;;;4.93;1.20;;;;;;;12.93;92.99;100728.66;5032045;28;20462;-68
2023/07/21 01:03:35;;;;;;;4.63;1.00;;;;;;;12.97;93.87;100732.34;5024238;28;20463;-68
2023/07/21 01:06:04;;;;;;;5.30;1.10;;;;;;;12.95;93.77;100732.66;5030702;28;20557;-68
2023/07/21 01:08:31;;;;;;;6.30;1.50;;;;;;;12.93;93.63;100726.75;5032513;28;20546;-68
2023/07/21 01:10:58;;;;;;;4.83;1.00;;;;;;;12.87;93.80;100726.06;5032229;28;20487;-68
2023/07/21 01:13:27;;;;;;;5.70;1.30;;;;;;;12.77;93.89;100729.06;5029872;28;20546;-68
2023/07/21 01:15:56;;;;;;;4.80;1.00;;;;;;;12.69;94.09;100724.38;5030256;28;20574;-68
2023/07/21 01:18:25;;;;;;;5.37;1.23;;;;;;;12.76;93.88;100732.91;5035000;28;20517;-68
2023/07/21 01:20:54;;;;;;;5.80;1.30;;;;;;;12.75;93.89;100728.56;5036333;28;20459;-68
2023/07/21 01:23:28;;;;;;;4.77;1.10;;;;;;;12.75;93.75;100731.28;5035718;28;20826;-68
2023/07/21 01:25:58;;;;;;;5.17;1.23;;;;;;;12.75;94.08;100725.84;5033882;28;20514;-68
2023/07/21 01:28:27;;;;;;;5.13;1.17;;;;;;;12.85;92.88;100727.50;5034196;28;20459;-68
2023/07/21 01:30:55;;;;;;;5.30;1.33;;;;;;;12.82;92.62;100720.75;5034775;28;20513;-68
2023/07/21 01:33:22;;;;;;;5.67;1.40;;;;;;;12.78;93.08;100721.69;5034934;28;20463;-68
2023/07/21 01:35:50;;;;;;;5.23;1.20;;;;;;;12.80;93.03;100722.19;5034421;28;20989;-68
2023/07/21 01:38:20;;;;;;;4.80;1.07;;;;;;;12.83;92.58;100718.84;5035382;28;20459;-68
2023/07/21 01:40:48;;;;;;;5.20;1.33;;;;;;;12.78;92.54;100719.78;5032116;28;20461;-68
2023/07/21 01:43:16;;;;;;;5.57;1.60;;;;;;;12.73;93.27;100719.91;5035284;28;20833;-68
2023/07/21 01:45:43;;;;;;;6.20;1.30;;;;;;;12.62;94.63;100721.31;5030764;28;20514;-68
2023/07/21 01:48:10;;;;;;;5.90;1.30;;;;;;;12.69;93.88;100716.22;5034308;28;20498;-68
2023/07/21 01:50:39;;;;;;;5.83;1.40;;;;;;;12.65;93.48;100720.66;5035328;28;20459;-68
2023/07/21 01:53:09;;;;;;;7.70;1.80;;;;;;;12.60;93.25;100729.75;5035499;28;20457;-68
2023/07/21 01:55:43;;;;;;;5.30;1.60;;;;;;;12.59;92.63;100721.91;5034955;28;20565;-68
2023/07/21 01:58:12;;;;;;;5.70;1.37;;;;;;;12.58;92.80;100720.31;5033070;28;20459;-68
2023/07/21 02:00:43;;;;;;;4.80;1.20;;;;;;;12.45;93.43;100724.72;5068962;22;20598;-69
2023/07/21 02:03:10;;;;;;;5.10;1.20;;;;;;;12.44;93.60;100728.56;5058918;28;20537;-69
2023/07/21 02:05:37;;;;;;;6.90;1.50;;;;;;;12.49;93.36;100719.47;5054216;28;20838;-69
2023/07/21 02:08:04;;;;;;;5.73;1.47;;;;;;;12.54;92.85;100722.06;5053101;28;20531;-69
2023/07/21 02:10:31;;;;;;;5.17;1.30;;;;;;;12.56;92.55;100719.81;5054481;28;20504;-69
2023/07/21 02:12:57;;;;;;;5.87;1.70;;;;;;;12.47;92.70;100721.69;5054287;28;20537;-69
2023/07/21 02:15:24;;;;;;;5.23;1.07;;;;;;;12.42;92.15;100727.25;5054238;28;20541;-69
2023/07/21 02:17:52;;;;;;;5.27;1.10;;;;;;;12.38;91.32;100732.50;5055692;28;20454;-69
2023/07/21 02:20:20;;;;;;;8.00;1.33;;;;;;;12.32;88.69;100731.81;5054279;28;20515;-70
2023/07/21 02:22:46;;;;;;;6.07;1.53;;;;;;;12.27;88.53;100733.88;5054065;28;20462;-68
2023/07/21 02:25:15;;;;;;;5.40;1.40;;;;;;;12.12;88.93;100738.53;5053295;28;20517;-69
2023/07/21 02:27:42;;;;;;;5.20;1.30;;;;;;;12.10;90.61;100731.81;5053568;28;20493;-68
2023/07/21 02:30:10;;;;;;;5.30;1.30;;;;;;;12.14;91.94;100738.25;5050821;28;20461;-69
2023/07/21 02:32:37;;;;;;;5.30;1.33;;;;;;;12.21;92.54;100732.38;5050635;28;20494;-69
2023/07/21 02:35:06;;;;;;;5.30;1.60;;;;;;;12.23;93.13;100727.44;5054015;28;20482;-69
2023/07/21 02:37:33;;;;;;;5.63;1.63;;;;;;;12.25;93.41;100720.56;5051778;28;20995;-69
2023/07/21 02:39:59;;;;;;;6.00;1.47;;;;;;;12.25;93.52;100722.50;5050721;28;20457;-69
2023/07/21 02:42:26;;;;;;;5.80;1.43;;;;;;;12.19;94.15;100721.81;5052100;28;20449;-69
2023/07/21 02:44:53;;;;;;;5.80;1.93;;;;;;;12.13;95.54;100723.06;5051454;28;20486;-69
2023/07/21 02:47:20;;;;;;;5.40;1.43;;;;;;;12.22;94.37;100723.94;5053598;28;20507;-69
2023/07/21 02:49:47;;;;;;;14.60;1.73;;;;;;;12.24;93.30;100713.53;5053905;28;20540;-69
2023/07/21 02:52:15;;;;;;;5.70;1.40;;;;;;;12.23;93.82;100720.09;5053524;28;20489;-68
2023/07/21 02:54:41;;;;;;;5.37;1.30;;;;;;;12.17;94.15;100713.16;5056616;28;20528;-69
2023/07/21 02:57:08;;;;;;;5.73;1.70;;;;;;;12.17;93.59;100713.16;5053521;28;20549;-69
2023/07/21 02:59:36;;;;;;;5.47;1.63;;;;;;;12.16;93.99;100717.00;5052693;28;20660;-69
2023/07/21 03:02:03;;;;;;;5.97;1.80;;;;;;;12.14;93.82;100715.72;5053397;28;20465;-69
2023/07/21 03:04:34;;;;;;;5.50;1.33;;;;;;;12.19;93.69;100713.66;5053473;28;20541;-69
2023/07/21 03:07:01;;;;;;;5.83;1.60;;;;;;;12.14;93.67;100715.72;5053736;28;20458;-68
2023/07/21 03:09:29;;;;;;;5.87;1.20;;;;;;;12.07;94.41;100722.34;5052266;28;20458;-68
2023/07/21 03:11:57;;;;;;;6.40;1.50;;;;;;;12.13;94.05;100712.19;5053322;28;20525;-68
2023/07/21 03:14:23;;;;;;;5.27;1.30;;;;;;;12.14;94.30;100713.81;5053366;28;20465;-69
2023/07/21 03:16:50;;;;;;;5.30;1.10;;;;;;;12.05;94.55;100713.72;5043774;28;20481;-68
2023/07/21 03:19:17;;;;;;;5.20;1.23;;;;;;;11.99;94.93;100714.16;5053526;28;20465;-68
2023/07/21 03:21:44;;;;;;;6.53;2.30;;;;;;;12.08;91.23;100712.28;5050589;28;20875;-66
2023/07/21 03:24:10;;;;;;;5.80;1.60;;;;;;;12.07;90.01;100713.41;5053171;28;20496;-67
2023/07/21 03:26:38;;;;;;;5.07;1.13;;;;;;;12.00;90.84;100708.44;5051979;28;20478;-68
2023/07/21 03:29:05;;;;;;;5.10;1.20;;;;;;;11.94;91.56;100708.84;5052008;28;20458;-69
2023/07/21 03:31:34;;;;;;;5.07;1.23;;;;;;;11.94;92.85;100711.56;5052101;28;20581;-69
2023/07/21 03:34:00;;;;;;;5.67;1.47;;;;;;;11.96;93.16;100712.06;5051995;28;20462;-69
2023/07/21 03:36:27;;;;;;;7.50;1.93;;;;;;;12.00;93.13;100715.78;5052856;28;20525;-69
2023/07/21 03:38:53;;;;;;;5.87;1.30;;;;;;;11.95;93.34;100713.94;5052138;28;20976;-69
2023/07/21 03:41:20;;;;;;;5.97;1.67;;;;;;;11.95;93.90;100708.53;5051834;28;20560;-69
2023/07/21 03:43:49;;;;;;;6.33;1.40;;;;;;;12.03;93.81;100712.41;5052644;28;21014;-69
2023/07/21 03:46:16;;;;;;;5.13;1.10;;;;;;;12.05;93.85;100710.22;5052824;28;20539;-69
2023/07/21 03:48:43;;;;;;;5.83;1.30;;;;;;;12.07;94.17;100705.28;5051494;28;20481;-70
2023/07/21 03:51:09;;;;;;;4.90;0.93;;;;;;;12.12;94.50;100700.50;5052272;28;20852;-69
2023/07/21 03:53:36;;;;;;;8.27;1.30;;;;;;;12.12;94.73;100707.84;5052144;28;20537;-69
2023/07/21 03:56:02;;;;;;;5.50;1.40;;;;;;;12.12;94.80;100703.22;5060084;28;20556;-69
2023/07/21 03:58:29;;;;;;;5.03;1.10;;;;;;;12.16;94.97;100705.34;5053937;28;20458;-69
2023/07/21 04:00:58;;;;;;;6.60;1.40;;;;;;;12.18;95.09;100703.13;5050989;28;20957;-69
2023/07/21 04:03:25;;;;;;;4.97;1.10;;;;;;;12.16;96.05;100694.47;5046057;28;20907;-69
2023/07/21 04:05:52;;;;;;;5.37;1.20;;;;;;;12.16;96.42;100689.03;5052385;28;20478;-69
2023/07/21 04:08:19;;;;;;;5.20;1.20;;;;;;;12.25;95.98;100690.69;5050417;28;20454;-69
2023/07/21 04:10:46;;;;;;;5.60;1.27;;;;;;;12.25;96.38;100689.91;5050397;28;20541;-69
2023/07/21 04:13:13;;;;;;;5.00;0.90;;;;;;;12.37;96.28;100696.38;5051937;28;20854;-69
2023/07/21 04:15:39;;;;;;;6.30;1.07;;;;;;;12.41;96.29;100687.63;5038375;28;20561;-69
2023/07/21 04:18:07;;;;;;;6.67;1.43;;;;;;;12.42;97.17;100687.28;5053503;28;20474;-70
2023/07/21 04:20:34;;;;;;;5.47;1.37;;;;;;;12.58;96.74;100685.78;5048740;28;20463;-70
2023/07/21 04:23:01;;;;;;;4.70;0.80;;;;;;;12.67;95.56;100688.56;5051483;28;20813;-68
2023/07/21 04:25:28;;;;;;;4.97;0.93;;;;;;;12.82;92.81;100688.13;5049950;28;20536;-68
2023/07/21 04:27:55;;;;;;;5.27;1.10;;;;;;;12.91;91.11;100692.81;5049192;28;20474;-68
2023/07/21 04:30:22;;;;;;;5.37;0.90;;;;;;;12.98;89.28;100687.72;5051178;28;20552;-68
2023/07/21 04:32:49;;;;;;;5.10;1.13;;;;;;;13.02;90.17;100683.28;5050736;28;20535;-68
2023/07/21 04:35:17;;;;;;;4.80;0.87;;;;;;;13.00;91.51;100680.84;5051212;28;20569;-69
2023/07/21 04:37:44;;;;;;;4.60;1.00;;;;;;;13.04;93.03;100676.38;5052417;28;20565;-68
2023/07/21 04:40:11;;;;;;;4.90;1.10;;;;;;;13.21;93.84;100680.28;5051297;28;20459;-68
2023/07/21 04:42:38;;;;;;;4.87;0.97;;;;;;;13.26;95.02;100680.97;5053184;28;20481;-68
2023/07/21 04:45:11;;;;;;;4.80;0.97;;;;;;;13.41;95.29;100681.63;5052108;28;20489;-68
2023/07/21 04:47:38;;;;;;;5.20;1.20;;;;;;;13.61;94.91;100678.31;5046290;28;20497;-69
2023/07/21 04:50:06;;;;;;;4.50;0.60;;;;;;;13.80;94.69;100676.06;5051871;28;21148;-69
2023/07/21 04:52:36;;;;;;;5.50;1.30;;;;;;;13.98;94.04;100678.78;5054474;28;20950;-69
2023/07/21 04:55:04;;;;;;;4.60;0.80;;;;;;;14.09;93.60;100677.34;5054329;28;20490;-69
2023/07/21 04:57:31;;;;;;;4.60;0.90;;;;;;;14.20;93.46;100680.53;5056830;28;20504;-69
2023/07/21 04:59:58;;;;;;;4.80;1.00;;;;;;;14.33;93.80;100682.25;5049961;28;20480;-69
2023/07/21 05:02:26;;;;;;;4.90;1.30;;;;;;;14.46;93.53;100675.03;5053656;28;21280;-69
2023/07/21 05:04:53;;;;;;;4.73;0.80;;;;;;;14.58;93.28;100677.91;5055492;28;20476;-69
2023/07/21 05:07:20;;;;;;;5.30;1.13;;;;;;;14.67;93.64;100680.59;5055794;28;20996;-68
2023/07/21 05:09:48;;;;;;;5.30;1.10;;;;;;;14.73;94.05;100680.09;5052305;28;20846;-69
2023/07/21 05:12:14;;;;;;;4.73;0.97;;;;;;;14.83;94.31;100684.38;5042984;28;20572;-69
2023/07/21 05:14:41;;;;;;;5.20;0.90;;;;;;;14.96;93.99;100677.09;5053939;28;20482;-69
2023/07/21 05:17:08;;;;;;;5.20;0.90;;;;;;;15.05;94.05;100684.16;5054957;28;20485;-69
2023/07/21 05:19:34;;;;;;;5.27;1.20;;;;;;;15.14;94.08;100684.09;5055911;28;20549;-69
2023/07/21 05:22:02;;;;;;;4.93;1.03;;;;;;;15.20;94.14;100685.50;5055428;28;20458;-69
2023/07/21 05:24:29;;;;;;;5.03;1.10;;;;;;;15.19;94.28;100681.19;5054318;28;20467;-69
2023/07/21 05:26:56;;;;;;;5.60;1.07;;;;;;;15.18;95.41;100685.00;5055439;28;20490;-69
2023/07/21 05:29:23;;;;;;;4.93;0.90;;;;;;;15.33;94.69;100680.94;5052928;28;20462;-69
2023/07/21 05:31:52;;;;;;;5.13;0.97;;;;;;;15.41;94.66;100676.56;5051261;28;20549;-69
2023/07/21 05:34:18;;;;;;;8.10;1.30;;;;;;;15.50;94.75;100674.56;5050666;28;20504;-69
2023/07/21 05:36:45;;;;;;;5.10;0.93;;;;;;;15.61;95.19;100675.75;5051173;28;20541;-69
2023/07/21 05:39:11;;;;;;;5.90;1.40;;;;;;;15.70;94.81;100679.25;5051464;28;20540;-69
2023/07/21 05:41:38;;;;;;;8.47;1.73;;;;;;;15.76;94.30;100677.13;5054695;28;20581;-69
2023/07/21 05:44:06;;;;;;;4.70;0.90;;;;;;;15.86;93.86;100685.72;5050247;28;20976;-69
2023/07/21 05:46:33;;;;;;;5.27;1.10;;;;;;;15.98;93.21;100667.78;5054034;28;20481;-69
2023/07/21 05:48:59;;;;;;;5.50;1.20;;;;;;;16.05;92.88;100670.78;5056906;28;20473;-69
2023/07/21 05:51:26;;;;;;;4.63;1.00;;;;;;;16.12;93.17;100665.56;5063492;28;20469;-69
2023/07/21 05:53:52;;;;;;;6.13;1.03;;;;;;;16.20;92.96;100664.66;5056371;28;20490;-69
2023/07/21 05:56:19;;;;;;;5.10;0.90;;;;;;;16.24;93.14;100668.31;5054797;28;20482;-69
2023/07/21 05:58:46;;;;;;;4.63;0.80;;;;;;;16.31;93.48;100665.84;5053849;28;20458;-69
2023/07/21 06:01:14;;;;;;;6.00;1.10;;;;;;;16.37;93.40;100669.97;5048800;28;20462;-69
2023/07/21 06:03:40;;;;;;;5.83;1.20;;;;;;;16.45;92.28;100670.22;5051547;28;20965;-69
2023/07/21 06:06:07;;;;;;;6.00;1.30;;;;;;;16.48;91.63;100669.53;5050368;28;20569;-67
2023/07/21 06:08:34;;;;;;;5.03;1.17;;;;;;;16.52;88.48;100676.72;5054338;28;20958;-66
2023/07/21 06:11:02;;;;;;;5.43;1.40;;;;;;;16.55;88.02;100670.56;5054294;28;20469;-68
2023/07/21 06:13:29;;;;;;;5.47;1.27;;;;;;;16.56;86.23;100676.84;5052264;28;20477;-69
2023/07/21 06:15:56;;;;;;;6.83;1.67;;;;;;;16.59;87.22;100674.22;5048428;28;20510;-68
2023/07/21 06:18:30;;;;;;;6.70;1.80;;;;;;;16.69;88.74;100674.91;5056057;28;20462;-69
2023/07/21 06:20:57;;;;;;;7.33;1.43;;;;;;;16.76;89.68;100669.72;5053549;28;20540;-68
2023/07/21 06:23:24;;;;;;;5.77;1.80;;;;;;;16.82;89.50;100673.81;5052266;28;20494;-68
2023/07/21 06:25:50;;;;;;;6.30;1.80;;;;;;;16.87;88.90;100670.88;5043533;28;20486;-68
2023/07/21 06:28:17;;;;;;;5.50;1.63;;;;;;;16.90;88.71;100670.97;5051266;28;21057;-68
2023/07/21 06:30:44;;;;;;;7.03;2.03;;;;;;;16.95;90.00;100666.41;5047104;28;20494;-68
2023/07/21 06:33:11;;;;;;;6.03;1.50;;;;;;;16.99;90.58;100670.06;5050760;28;20482;-70
2023/07/21 06:35:39;;;;;;;6.00;1.67;;;;;;;17.01;90.47;100676.03;5054277;28;20482;-69
2023/07/21 06:38:07;;;;;;;6.70;1.67;;;;;;;17.02;90.92;100672.13;5053056;28;20458;-69
2023/07/21 06:40:33;;;;;;;6.63;1.70;;;;;;;17.06;90.34;100670.31;5049463;28;20507;-69
2023/07/21 06:43:00;;;;;;;7.97;2.20;;;;;;;17.07;89.55;100667.22;5053167;28;20489;-69
2023/07/21 06:45:27;;;;;;;6.57;1.87;;;;;;;17.12;89.87;100672.47;5057497;28;20508;-69
2023/07/21 06:47:53;;;;;;;5.83;1.80;;;;;;;17.15;90.11;100682.72;5059700;28;20494;-69
2023/07/21 06:50:20;;;;;;;6.23;2.10;;;;;;;17.19;89.74;100682.06;5053190;28;20981;-71
2023/07/21 06:52:49;;;;;;;4.80;1.10;;;;;;;17.11;89.69;100678.28;5050886;28;20490;-71
2023/07/21 06:55:16;;;;;;;6.03;1.13;;;;;;;17.13;88.94;100670.53;5048165;28;20486;-71
2023/07/21 06:57:42;;;;;;;5.40;1.27;;;;;;;17.17;88.53;100682.38;5052471;28;20489;-72
2023/07/21 07:00:12;;;;;;;5.53;1.43;;;;;;;17.20;88.25;100676.22;5053520;28;20472;-72
2023/07/21 07:02:39;;;;;;;5.70;1.20;;;;;;;17.24;88.58;100673.59;5054205;28;20925;-72
2023/07/21 07:05:06;;;;;;;4.60;0.93;;;;;;;17.29;89.74;100676.09;5054143;28;20501;-71
2023/07/21 07:07:33;;;;;;;5.77;1.80;;;;;;;17.30;89.92;100670.28;5054468;28;20516;-72
2023/07/21 07:10:01;;;;;;;5.40;1.40;;;;;;;17.25;90.98;100676.00;5052275;28;20780;-73
2023/07/21 07:12:27;;;;;;;7.30;1.77;;;;;;;17.24;93.57;100677.13;5054688;28;20522;-73
2023/07/21 07:14:54;;;;;;;5.37;1.27;;;;;;;17.16;94.47;100675.31;5053163;28;20513;-73
2023/07/21 07:17:21;;;;;;;5.20;1.40;;;;;;;17.15;96.06;100671.00;5045838;28;20454;-72
2023/07/21 07:19:48;;;;;;;5.37;1.20;;;;;;;17.12;97.19;100677.13;5045978;28;21498;-72
2023/07/21 07:22:14;;;;;;;5.90;1.60;;;;;;;17.10;98.42;100673.97;5046909;28;21061;-72
2023/07/21 07:24:41;;;;;;;7.37;2.20;;;;;;;17.11;99.92;100668.13;5050942;28;20482;-72
2023/07/21 07:27:09;;;;;;;5.83;1.37;;;;;;;17.13;100.00;100667.78;5052390;28;20553;-72
2023/07/21 07:29:36;;;;;;;7.63;1.67;;;;;;;17.15;100.00;100660.03;5050408;28;20571;-72
2023/07/21 07:32:02;;;;;;;5.30;1.23;;;;;;;17.21;100.00;100666.88;5045398;28;20559;-72
2023/07/21 07:34:29;;;;;;;5.23;1.20;;;;;;;17.28;100.00;100667.09;5046668;28;20581;-73
2023/07/21 07:36:58;;;;;;;6.70;1.40;;;;;;;17.34;100.00;100660.22;5045323;28;20799;-74
2023/07/21 07:39:25;;;;;;;7.53;1.30;;;;;;;17.39;100.00;100665.47;5042952;28;20549;-73
2023/07/21 07:41:51;;;;;;;5.90;1.30;;;;;;;17.47;100.00;100665.69;5047372;28;20450;-73
2023/07/21 07:44:20;;;;;;;5.90;1.57;;;;;;;17.47;98.34;100662.97;5052457;28;20454;-73
2023/07/21 07:46:47;;;;;;;6.00;1.47;;;;;;;17.50;96.24;100659.53;5048234;28;20451;-75
2023/07/21 07:49:13;;;;;;;5.10;1.20;;;;;;;17.62;95.80;100662.25;5051662;28;20577;-74
2023/07/21 07:51:40;;;;;;;4.80;1.10;;;;;;;17.75;95.32;100660.28;5050267;28;20464;-73
2023/07/21 07:54:07;;;;;;;6.40;1.93;;;;;;;17.87;95.02;100661.03;5049939;28;20563;-74
2023/07/21 07:56:34;;;;;;;5.20;1.30;;;;;;;18.03;95.43;100660.31;5052551;28;20478;-69
2023/07/21 07:59:01;;;;;;;5.10;1.30;;;;;;;18.24;95.29;100666.38;5053547;28;20496;-70
2023/07/21 08:01:29;;;;;;;5.43;1.20;;;;;;;18.33;93.49;100661.53;5046705;28;20500;-71
2023/07/21 08:03:56;;;;;;;5.63;1.10;;;;;;;18.47;90.26;100665.78;5045353;28;20462;-69
2023/07/21 08:06:22;;;;;;;5.70;1.00;;;;;;;18.61;87.74;100671.63;5044939;28;20466;-68
2023/07/21 08:08:49;;;;;;;6.80;1.50;;;;;;;18.78;85.74;100665.03;5053483;28;20500;-69
2023/07/21 08:11:15;;;;;;;4.60;0.80;;;;;;;18.94;85.82;100665.81;5049958;28;20454;-69
2023/07/21 08:13:42;;;;;;;5.50;0.97;;;;;;;19.08;84.10;100670.84;5053492;28;20489;-69
2023/07/21 08:16:10;;;;;;;5.17;0.90;;;;;;;19.17;78.81;100671.47;5052043;28;20890;-69
2023/07/21 08:18:38;;;;;;;4.87;1.00;;;;;;;19.25;76.33;100675.94;5050204;28;20924;-69
2023/07/21 08:21:18;;;;;;;5.87;1.03;;;;;;;19.45;74.95;100670.50;5045188;28;20465;-69
2023/07/21 08:23:45;;;;;;;5.03;0.90;;;;;;;19.64;74.30;100671.34;5047753;28;20466;-69
2023/07/21 08:26:11;;;;;;;6.30;0.93;;;;;;;19.86;74.31;100672.59;5046968;28;20486;-69
2023/07/21 08:28:38;;;;;;;9.03;1.30;;;;;;;20.00;72.79;100669.34;5050358;28;20463;-69
2023/07/21 08:31:05;;;;;;;6.30;1.47;;;;;;;20.10;71.40;100670.72;5053852;28;20553;-69
2023/07/21 08:33:31;;;;;;;4.80;0.97;;;;;;;20.16;70.05;100664.56;5052008;28;21016;-69
2023/07/21 08:35:59;;;;;;;4.90;1.10;;;;;;;20.24;69.52;100660.00;5052397;28;20477;-69
2023/07/21 08:38:26;;;;;;;4.37;0.90;;;;;;;20.36;68.94;100662.56;5052486;28;20458;-69
2023/07/21 08:41:00;;;;;;;4.50;0.80;;;;;;;20.28;63.72;100663.59;5051421;28;20592;-69
2023/07/21 08:43:27;;;;;;;4.40;0.80;;;;;;;20.17;59.93;100665.34;5055206;28;20515;-69
2023/07/21 08:45:58;;;;;;;5.00;1.03;;;;;;;20.12;62.20;100660.94;5053119;28;20565;-69
2023/07/21 08:48:25;;;;;;;4.90;1.03;;;;;;;20.18;62.51;100661.44;5050458;28;20459;-69
2023/07/21 08:50:55;;;;;;;6.43;1.20;;;;;;;20.19;60.98;100660.28;5056677;28;20541;-69
2023/07/21 08:53:24;;;;;;;5.87;1.27;;;;;;;20.05;59.41;100662.75;5054040;28;20466;-69
2023/07/21 08:55:54;;;;;;;4.10;0.70;;;;;;;19.93;59.71;100666.47;5071116;28;20483;-69
2023/07/21 08:58:21;;;;;;;5.13;1.03;;;;;;;19.96;61.68;100664.91;5065114;28;20461;-69
2023/07/21 09:00:48;;;;;;;5.10;1.00;;;;;;;19.95;61.72;100663.34;5055046;28;20462;-69
2023/07/21 09:03:22;;;;;;;4.10;0.63;;;;;;;20.00;61.74;100663.03;5055765;28;20458;-69
2023/07/21 09:05:49;;;;;;;5.23;0.97;;;;;;;20.08;65.46;100659.28;5055264;28;20899;-69
2023/07/21 09:08:20;;;;;;;4.70;0.90;;;;;;;20.18;68.56;100658.69;5062648;28;20512;-69
2023/07/21 09:10:48;;;;;;;5.67;1.10;;;;;;;20.26;69.24;100665.13;5054293;28;20462;-69
2023/07/21 09:13:16;;;;;;;5.40;1.10;;;;;;;20.28;68.28;100660.06;5054272;28;20486;-70
2023/07/21 09:15:51;;;;;;;4.67;1.10;;;;;;;20.27;70.03;100663.94;5053303;28;20556;-71
2023/07/21 09:18:18;;;;;;;5.03;1.00;;;;;;;20.15;68.58;100660.22;5050832;28;20477;-69
2023/07/21 09:20:46;;;;;;;5.60;1.10;;;;;;;20.10;65.93;100668.78;5054739;28;20481;-69
2023/07/21 09:23:13;;;;;;;4.07;0.67;;;;;;;20.09;67.42;100660.88;5053616;28;20540;-69
2023/07/21 09:25:51;;;;;;;5.77;0.83;;;;;;;20.04;67.68;100659.19;5051499;28;20514;-69
2023/07/21 09:28:18;;;;;;;4.30;0.90;;;;;;;19.91;65.21;100657.75;5061928;28;20450;-69
2023/07/21 09:30:52;;;;;;;5.60;1.23;;;;;;;19.87;65.93;100665.13;5063161;28;20442;-69
2023/07/21 09:33:23;;;;;;;4.67;0.93;;;;;;;19.88;66.42;100664.00;5059232;28;20469;-70
2023/07/21 09:35:50;;;;;;;4.50;0.90;;;;;;;19.77;66.69;100655.53;5058603;28;20469;-69
2023/07/21 09:38:17;;;;;;;4.20;0.60;;;;;;;19.78;70.05;100665.34;5052421;28;20462;-69
2023/07/21 09:40:44;;;;;;;4.47;0.73;;;;;;;19.83;72.55;100661.53;5052745;28;20457;-69
2023/07/21 09:43:13;;;;;;;4.50;1.00;;;;;;;19.91;74.71;100664.06;5053673;28;20969;-69
2023/07/21 09:45:42;;;;;;;5.17;1.10;;;;;;;19.95;71.85;100660.59;5051280;28;20513;-69
2023/07/21 09:48:11;;;;;;;4.00;0.63;;;;;;;19.89;67.04;100662.84;5058444;28;20497;-69
2023/07/21 09:50:38;;;;;;;4.40;0.80;;;;;;;19.89;68.56;100663.63;5039039;28;20466;-69
2023/07/21 09:53:04;;;;;;;4.40;0.80;;;;;;;19.89;69.63;100660.88;5051039;28;20504;-69
2023/07/21 09:55:40;;;;;;;4.90;0.93;;;;;;;19.92;72.40;100653.84;5053670;28;20512;-69
2023/07/21 09:58:10;;;;;;;4.27;0.70;;;;;;;19.97;75.29;100647.28;5054122;28;20818;-69
2023/07/21 10:00:41;;;;;;;4.33;0.70;;;;;;;19.95;76.72;100644.09;5047066;28;20482;-69
2023/07/21 10:03:08;;;;;;;4.10;0.60;;;;;;;19.88;74.10;100642.00;5039607;28;20461;-69
2023/07/21 10:05:36;;;;;;;4.23;0.67;;;;;;;19.86;74.80;100645.09;5034484;28;20463;-69
2023/07/21 10:08:04;;;;;;;4.47;0.80;;;;;;;19.79;67.21;100639.47;5035053;28;20872;-69
2023/07/21 10:10:31;;;;;;;4.50;0.83;;;;;;;19.77;70.83;100636.28;5035355;28;20447;-69
2023/07/21 10:13:05;;;;;;;4.93;1.20;;;;;;;19.84;74.45;100628.19;5035374;28;20466;-69
2023/07/21 10:15:33;;;;;;;4.80;0.73;;;;;;;19.89;75.39;100622.41;5035551;28;20495;-69
2023/07/21 10:18:04;;;;;;;4.97;1.00;;;;;;;20.06;76.03;100621.16;5035513;28;20447;-69
2023/07/21 10:20:42;;;;;;;4.30;0.90;;;;;;;20.26;75.99;100605.38;5035152;28;20463;-69
2023/07/21 10:23:10;;;;;;;6.20;1.23;;;;;;;20.33;76.03;100615.72;5035095;28;20445;-69
2023/07/21 10:25:56;;;;;;;4.60;0.83;;;;;;;20.41;72.72;100615.50;5035867;28;20481;-69
2023/07/21 10:28:24;;;;;;;4.60;1.10;;;;;;;20.43;70.34;100615.13;5035390;28;20438;-69
2023/07/21 10:30:52;;;;;;;4.50;0.90;;;;;;;20.48;69.72;100614.03;5034799;28;20447;-69
2023/07/21 10:33:21;;;;;;;7.50;1.23;;;;;;;20.48;70.45;100609.34;5035599;28;20439;-69
2023/07/21 10:35:49;;;;;;;8.33;1.40;;;;;;;20.51;69.28;100607.81;5034885;28;20471;-70
2023/07/21 10:38:24;;;;;;;4.77;1.00;;;;;;;20.62;69.83;100600.50;5035039;28;20450;-69
2023/07/21 10:40:51;;;;;;;5.03;1.30;;;;;;;20.78;71.00;100603.94;5034910;28;20431;-69
2023/07/21 10:43:17;;;;;;;5.47;1.03;;;;;;;20.87;70.20;100595.41;5036970;28;20537;-70
2023/07/21 10:45:51;;;;;;;8.63;1.67;;;;;;;20.96;70.04;100592.38;5054751;28;20490;-69
2023/07/21 10:48:18;;;;;;;6.90;1.20;;;;;;;20.92;69.29;100597.84;5055231;28;20458;-70
2023/07/21 10:50:51;;;;;;;6.37;1.50;;;;;;;20.90;70.52;100586.41;5054466;28;20529;-69
2023/07/21 10:53:18;;;;;;;5.83;1.40;;;;;;;20.89;73.23;100588.38;5054308;28;20431;-68
2023/07/21 10:55:45;;;;;;;5.33;1.53;;;;;;;20.82;70.71;100584.72;5054573;28;20500;-69
2023/07/21 10:58:12;;;;;;;5.60;1.50;;;;;;;20.66;69.11;100584.84;5054733;28;20484;-69
2023/07/21 11:00:49;;;;;;;6.73;1.57;;;;;;;20.63;72.26;100585.59;5053939;28;20457;-69
2023/07/21 11:03:16;;;;;;;5.10;1.40;;;;;;;20.65;71.79;100592.31;5067936;28;20448;-69
2023/07/21 11:05:43;;;;;;;5.60;1.60;;;;;;;20.66;71.18;100582.09;5074491;28;20550;-70
2023/07/21 11:08:26;;;;;;;6.50;1.77;;;;;;;20.64;73.26;100576.19;5074116;28;20441;-69
2023/07/21 11:10:53;;;;;;;8.23;2.20;;;;;;;20.65;72.92;100575.81;5074301;28;20509;-69
2023/07/21 11:13:20;;;;;;;7.20;1.47;;;;;;;20.69;72.19;100575.84;5074344;28;20528;-69
2023/07/21 11:15:51;;;;;;;5.73;1.43;;;;;;;20.66;70.52;100580.13;5074042;28;20489;-69
2023/07/21 11:18:18;;;;;;;7.27;1.73;;;;;;;20.59;70.76;100576.50;5073911;28;20955;-70
2023/07/21 11:20:49;;;;;;;5.90;1.50;;;;;;;20.52;71.74;100565.38;5074097;28;20445;-69
2023/07/21 11:23:17;;;;;;;6.23;1.80;;;;;;;20.47;72.67;100563.69;5074011;28;20460;-69
2023/07/21 11:25:59;;;;;;;8.63;1.87;;;;;;;20.50;73.93;100559.44;5074197;28;20560;-69
2023/07/21 11:28:26;;;;;;;6.20;1.80;;;;;;;20.55;74.80;100561.88;5073706;28;20916;-69